sensor_id;sensor_type;location;lat;lon;timestamp;P1;durP1;ratioP1;P2;durP2;ratioP2
76593;SDS011;65482;50.240;14.302;2022-12-18T00:01:53;85.25;;;33.45;;
76593;SDS011;65482;50.240;14.302;2022-12-18T00:04:23;82.25;;;31.15;;
76593;SDS011;65482;50.240;14.302;2022-12-18T00:06:50;91.13;;;34.13;;
76593;SDS011;65482;50.240;14.302;2022-12-18T00:09:16;81.85;;;31.27;;
76593;SDS011;65482;50.240;14.302;2022-12-18T00:11:41;87.88;;;33.05;;
76593;SDS011;65482;50.240;14.302;2022-12-18T00:14:08;78.60;;;31.10;;
76593;SDS011;65482;50.240;14.302;2022-12-18T00:16:34;86.63;;;31.52;;
76593;SDS011;65482;50.240;14.302;2022-12-18T00:19:02;84.20;;;30.95;;
76593;SDS011;65482;50.240;14.302;2022-12-18T00:21:29;85.28;;;32.65;;
76593;SDS011;65482;50.240;14.302;2022-12-18T00:23:56;91.30;;;32.88;;
76593;SDS011;65482;50.240;14.302;2022-12-18T00:26:22;87.82;;;32.85;;
76593;SDS011;65482;50.240;14.302;2022-12-18T00:28:54;93.13;;;32.92;;
76593;SDS011;65482;50.240;14.302;2022-12-18T00:31:23;82.18;;;30.80;;
76593;SDS011;65482;50.240;14.302;2022-12-18T00:33:49;80.03;;;30.27;;
76593;SDS011;65482;50.240;14.302;2022-12-18T00:36:16;77.30;;;30.52;;
76593;SDS011;65482;50.240;14.302;2022-12-18T00:38:45;76.72;;;29.33;;
76593;SDS011;65482;50.240;14.302;2022-12-18T00:41:12;84.13;;;30.63;;
76593;SDS011;65482;50.240;14.302;2022-12-18T00:44:00;74.05;;;28.52;;
76593;SDS011;65482;50.240;14.302;2022-12-18T00:46:26;80.47;;;27.70;;
76593;SDS011;65482;50.240;14.302;2022-12-18T00:48:52;85.53;;;29.60;;
76593;SDS011;65482;50.240;14.302;2022-12-18T00:51:17;81.90;;;29.02;;
76593;SDS011;65482;50.240;14.302;2022-12-18T00:53:43;79.07;;;28.92;;
76593;SDS011;65482;50.240;14.302;2022-12-18T00:56:11;80.43;;;29.65;;
76593;SDS011;65482;50.240;14.302;2022-12-18T00:58:37;85.43;;;29.10;;
76593;SDS011;65482;50.240;14.302;2022-12-18T01:01:03;78.45;;;29.75;;
76593;SDS011;65482;50.240;14.302;2022-12-18T01:03:30;77.85;;;29.35;;
76593;SDS011;65482;50.240;14.302;2022-12-18T01:05:55;77.55;;;29.30;;
76593;SDS011;65482;50.240;14.302;2022-12-18T01:08:21;94.88;;;32.65;;
76593;SDS011;65482;50.240;14.302;2022-12-18T01:10:47;78.07;;;30.23;;
76593;SDS011;65482;50.240;14.302;2022-12-18T01:13:13;81.60;;;30.38;;
76593;SDS011;65482;50.240;14.302;2022-12-18T01:15:38;86.35;;;30.15;;
76593;SDS011;65482;50.240;14.302;2022-12-18T01:18:04;86.05;;;30.38;;
76593;SDS011;65482;50.240;14.302;2022-12-18T01:20:29;84.93;;;29.73;;
76593;SDS011;65482;50.240;14.302;2022-12-18T01:22:55;79.63;;;30.45;;
76593;SDS011;65482;50.240;14.302;2022-12-18T01:25:20;75.00;;;29.73;;
76593;SDS011;65482;50.240;14.302;2022-12-18T01:27:46;82.07;;;31.92;;
76593;SDS011;65482;50.240;14.302;2022-12-18T01:30:11;92.60;;;29.77;;
76593;SDS011;65482;50.240;14.302;2022-12-18T01:32:37;74.70;;;29.08;;
76593;SDS011;65482;50.240;14.302;2022-12-18T01:35:03;72.43;;;28.40;;
76593;SDS011;65482;50.240;14.302;2022-12-18T01:37:29;82.40;;;30.67;;
76593;SDS011;65482;50.240;14.302;2022-12-18T01:39:54;79.60;;;29.30;;
76593;SDS011;65482;50.240;14.302;2022-12-18T01:42:21;81.68;;;30.25;;
76593;SDS011;65482;50.240;14.302;2022-12-18T01:47:35;72.45;;;28.95;;
76593;SDS011;65482;50.240;14.302;2022-12-18T01:50:09;78.30;;;30.42;;
76593;SDS011;65482;50.240;14.302;2022-12-18T01:52:47;69.88;;;26.13;;
76593;SDS011;65482;50.240;14.302;2022-12-18T01:55:17;76.70;;;26.30;;
76593;SDS011;65482;50.240;14.302;2022-12-18T01:57:46;74.13;;;28.05;;
76593;SDS011;65482;50.240;14.302;2022-12-18T02:00:14;75.53;;;27.52;;
76593;SDS011;65482;50.240;14.302;2022-12-18T02:02:41;77.13;;;28.33;;
76593;SDS011;65482;50.240;14.302;2022-12-18T02:05:09;81.95;;;27.98;;
76593;SDS011;65482;50.240;14.302;2022-12-18T02:12:56;74.88;;;26.65;;
76593;SDS011;65482;50.240;14.302;2022-12-18T02:15:44;76.28;;;28.70;;
76593;SDS011;65482;50.240;14.302;2022-12-18T02:18:21;70.20;;;25.25;;
76593;SDS011;65482;50.240;14.302;2022-12-18T02:21:20;81.28;;;28.00;;
76593;SDS011;65482;50.240;14.302;2022-12-18T02:28:59;81.60;;;26.63;;
76593;SDS011;65482;50.240;14.302;2022-12-18T02:31:30;65.88;;;26.35;;
76593;SDS011;65482;50.240;14.302;2022-12-18T02:34:02;75.65;;;27.90;;
76593;SDS011;65482;50.240;14.302;2022-12-18T02:36:29;74.75;;;26.77;;
76593;SDS011;65482;50.240;14.302;2022-12-18T02:38:58;77.93;;;27.40;;
76593;SDS011;65482;50.240;14.302;2022-12-18T02:41:26;75.70;;;27.77;;
76593;SDS011;65482;50.240;14.302;2022-12-18T02:43:55;72.93;;;26.88;;
76593;SDS011;65482;50.240;14.302;2022-12-18T02:46:35;79.95;;;26.80;;
76593;SDS011;65482;50.240;14.302;2022-12-18T02:51:57;81.28;;;26.73;;
76593;SDS011;65482;50.240;14.302;2022-12-18T02:57:10;77.05;;;27.45;;
76593;SDS011;65482;50.240;14.302;2022-12-18T02:59:56;79.50;;;26.95;;
76593;SDS011;65482;50.240;14.302;2022-12-18T03:02:29;76.55;;;29.15;;
76593;SDS011;65482;50.240;14.302;2022-12-18T03:05:20;79.03;;;27.48;;
76593;SDS011;65482;50.240;14.302;2022-12-18T03:08:08;89.65;;;27.95;;
76593;SDS011;65482;50.240;14.302;2022-12-18T03:10:42;95.63;;;30.20;;
76593;SDS011;65482;50.240;14.302;2022-12-18T03:13:33;82.45;;;28.55;;
76593;SDS011;65482;50.240;14.302;2022-12-18T03:16:03;89.25;;;28.27;;
76593;SDS011;65482;50.240;14.302;2022-12-18T03:18:38;83.28;;;29.92;;
76593;SDS011;65482;50.240;14.302;2022-12-18T03:21:12;95.22;;;29.00;;
76593;SDS011;65482;50.240;14.302;2022-12-18T03:23:43;91.32;;;28.35;;
76593;SDS011;65482;50.240;14.302;2022-12-18T03:26:15;92.85;;;30.10;;
76593;SDS011;65482;50.240;14.302;2022-12-18T03:28:48;80.43;;;27.80;;
76593;SDS011;65482;50.240;14.302;2022-12-18T03:31:19;77.78;;;27.08;;
76593;SDS011;65482;50.240;14.302;2022-12-18T03:33:52;79.65;;;27.65;;
76593;SDS011;65482;50.240;14.302;2022-12-18T03:36:20;78.80;;;26.00;;
76593;SDS011;65482;50.240;14.302;2022-12-18T03:38:45;70.38;;;25.85;;
76593;SDS011;65482;50.240;14.302;2022-12-18T03:41:19;90.13;;;27.58;;
76593;SDS011;65482;50.240;14.302;2022-12-18T03:46:46;85.85;;;26.63;;
76593;SDS011;65482;50.240;14.302;2022-12-18T03:49:34;88.13;;;27.13;;
76593;SDS011;65482;50.240;14.302;2022-12-18T03:52:07;77.35;;;27.05;;
76593;SDS011;65482;50.240;14.302;2022-12-18T03:54:38;95.53;;;28.40;;
76593;SDS011;65482;50.240;14.302;2022-12-18T03:57:08;84.35;;;26.38;;
76593;SDS011;65482;50.240;14.302;2022-12-18T03:59:38;88.38;;;27.85;;
76593;SDS011;65482;50.240;14.302;2022-12-18T04:02:06;87.43;;;29.98;;
76593;SDS011;65482;50.240;14.302;2022-12-18T04:04:34;108.20;;;30.50;;
76593;SDS011;65482;50.240;14.302;2022-12-18T04:07:03;83.90;;;29.63;;
76593;SDS011;65482;50.240;14.302;2022-12-18T04:09:30;91.40;;;31.17;;
76593;SDS011;65482;50.240;14.302;2022-12-18T04:11:59;88.85;;;30.90;;
76593;SDS011;65482;50.240;14.302;2022-12-18T04:14:24;96.28;;;31.25;;
76593;SDS011;65482;50.240;14.302;2022-12-18T04:16:50;88.43;;;31.30;;
76593;SDS011;65482;50.240;14.302;2022-12-18T04:19:15;88.25;;;29.98;;
76593;SDS011;65482;50.240;14.302;2022-12-18T04:21:41;94.82;;;31.95;;
76593;SDS011;65482;50.240;14.302;2022-12-18T04:24:07;100.82;;;32.20;;
76593;SDS011;65482;50.240;14.302;2022-12-18T04:26:33;82.00;;;30.00;;
76593;SDS011;65482;50.240;14.302;2022-12-18T04:28:59;94.43;;;31.40;;
76593;SDS011;65482;50.240;14.302;2022-12-18T04:31:25;86.57;;;29.15;;
76593;SDS011;65482;50.240;14.302;2022-12-18T04:33:51;88.85;;;29.75;;
76593;SDS011;65482;50.240;14.302;2022-12-18T04:36:16;99.93;;;32.00;;
76593;SDS011;65482;50.240;14.302;2022-12-18T04:38:42;86.00;;;29.30;;
76593;SDS011;65482;50.240;14.302;2022-12-18T04:41:08;87.40;;;29.92;;
76593;SDS011;65482;50.240;14.302;2022-12-18T04:43:33;89.38;;;30.02;;
76593;SDS011;65482;50.240;14.302;2022-12-18T04:46:02;85.65;;;29.05;;
76593;SDS011;65482;50.240;14.302;2022-12-18T04:48:31;81.82;;;28.10;;
76593;SDS011;65482;50.240;14.302;2022-12-18T04:50:58;86.70;;;29.60;;
76593;SDS011;65482;50.240;14.302;2022-12-18T04:53:23;81.88;;;30.05;;
76593;SDS011;65482;50.240;14.302;2022-12-18T04:55:49;90.22;;;29.60;;
76593;SDS011;65482;50.240;14.302;2022-12-18T04:58:14;90.50;;;29.38;;
76593;SDS011;65482;50.240;14.302;2022-12-18T05:00:40;85.13;;;28.48;;
76593;SDS011;65482;50.240;14.302;2022-12-18T05:03:05;87.85;;;30.13;;
76593;SDS011;65482;50.240;14.302;2022-12-18T05:05:31;82.95;;;30.55;;
76593;SDS011;65482;50.240;14.302;2022-12-18T05:07:59;83.32;;;28.75;;
76593;SDS011;65482;50.240;14.302;2022-12-18T05:10:25;86.38;;;30.25;;
76593;SDS011;65482;50.240;14.302;2022-12-18T05:12:50;89.03;;;30.58;;
76593;SDS011;65482;50.240;14.302;2022-12-18T05:15:29;90.72;;;30.42;;
76593;SDS011;65482;50.240;14.302;2022-12-18T05:17:55;85.68;;;30.63;;
76593;SDS011;65482;50.240;14.302;2022-12-18T05:20:21;80.57;;;30.08;;
76593;SDS011;65482;50.240;14.302;2022-12-18T05:22:47;92.65;;;31.83;;
76593;SDS011;65482;50.240;14.302;2022-12-18T05:25:12;89.85;;;31.63;;
76593;SDS011;65482;50.240;14.302;2022-12-18T05:27:38;88.63;;;29.27;;
76593;SDS011;65482;50.240;14.302;2022-12-18T05:30:04;83.00;;;30.08;;
76593;SDS011;65482;50.240;14.302;2022-12-18T05:32:30;83.90;;;32.08;;
76593;SDS011;65482;50.240;14.302;2022-12-18T05:34:55;94.55;;;31.50;;
76593;SDS011;65482;50.240;14.302;2022-12-18T05:37:22;83.68;;;29.58;;
76593;SDS011;65482;50.240;14.302;2022-12-18T05:39:48;89.97;;;32.00;;
76593;SDS011;65482;50.240;14.302;2022-12-18T05:42:13;87.47;;;31.02;;
76593;SDS011;65482;50.240;14.302;2022-12-18T05:44:39;87.95;;;30.90;;
76593;SDS011;65482;50.240;14.302;2022-12-18T05:47:05;96.30;;;31.45;;
76593;SDS011;65482;50.240;14.302;2022-12-18T05:49:31;90.20;;;31.98;;
76593;SDS011;65482;50.240;14.302;2022-12-18T05:51:56;89.70;;;32.55;;
76593;SDS011;65482;50.240;14.302;2022-12-18T05:54:22;80.88;;;30.10;;
76593;SDS011;65482;50.240;14.302;2022-12-18T05:56:48;103.95;;;32.22;;
76593;SDS011;65482;50.240;14.302;2022-12-18T05:59:13;87.10;;;32.35;;
76593;SDS011;65482;50.240;14.302;2022-12-18T06:01:39;85.15;;;31.33;;
76593;SDS011;65482;50.240;14.302;2022-12-18T06:04:05;93.10;;;33.33;;
76593;SDS011;65482;50.240;14.302;2022-12-18T06:06:30;89.60;;;32.83;;
76593;SDS011;65482;50.240;14.302;2022-12-18T06:08:56;93.25;;;32.08;;
76593;SDS011;65482;50.240;14.302;2022-12-18T06:11:23;87.13;;;32.95;;
76593;SDS011;65482;50.240;14.302;2022-12-18T06:13:50;95.03;;;34.58;;
76593;SDS011;65482;50.240;14.302;2022-12-18T06:16:17;86.38;;;33.35;;
76593;SDS011;65482;50.240;14.302;2022-12-18T06:18:43;88.68;;;31.35;;
76593;SDS011;65482;50.240;14.302;2022-12-18T06:21:08;87.10;;;31.95;;
76593;SDS011;65482;50.240;14.302;2022-12-18T06:23:35;92.43;;;31.92;;
76593;SDS011;65482;50.240;14.302;2022-12-18T06:26:07;99.07;;;34.97;;
76593;SDS011;65482;50.240;14.302;2022-12-18T06:28:34;84.30;;;31.08;;
76593;SDS011;65482;50.240;14.302;2022-12-18T06:31:00;95.93;;;32.03;;
76593;SDS011;65482;50.240;14.302;2022-12-18T06:33:27;93.20;;;31.08;;
76593;SDS011;65482;50.240;14.302;2022-12-18T06:35:53;81.85;;;30.50;;
76593;SDS011;65482;50.240;14.302;2022-12-18T06:38:19;89.82;;;32.25;;
76593;SDS011;65482;50.240;14.302;2022-12-18T06:40:45;96.38;;;33.30;;
76593;SDS011;65482;50.240;14.302;2022-12-18T06:43:10;95.63;;;33.03;;
76593;SDS011;65482;50.240;14.302;2022-12-18T06:45:36;92.57;;;33.72;;
76593;SDS011;65482;50.240;14.302;2022-12-18T06:48:02;95.93;;;32.47;;
76593;SDS011;65482;50.240;14.302;2022-12-18T06:50:27;105.55;;;32.80;;
76593;SDS011;65482;50.240;14.302;2022-12-18T06:52:53;87.63;;;30.13;;
76593;SDS011;65482;50.240;14.302;2022-12-18T06:55:19;88.15;;;32.42;;
76593;SDS011;65482;50.240;14.302;2022-12-18T06:57:45;92.18;;;33.70;;
76593;SDS011;65482;50.240;14.302;2022-12-18T07:00:10;96.20;;;33.80;;
76593;SDS011;65482;50.240;14.302;2022-12-18T07:02:36;93.82;;;33.58;;
76593;SDS011;65482;50.240;14.302;2022-12-18T07:05:02;93.10;;;33.80;;
76593;SDS011;65482;50.240;14.302;2022-12-18T07:07:28;106.70;;;32.10;;
76593;SDS011;65482;50.240;14.302;2022-12-18T07:09:53;79.93;;;31.83;;
76593;SDS011;65482;50.240;14.302;2022-12-18T07:12:19;95.90;;;33.67;;
76593;SDS011;65482;50.240;14.302;2022-12-18T07:14:45;94.88;;;33.25;;
76593;SDS011;65482;50.240;14.302;2022-12-18T07:17:10;92.35;;;33.13;;
76593;SDS011;65482;50.240;14.302;2022-12-18T07:19:36;89.93;;;31.33;;
76593;SDS011;65482;50.240;14.302;2022-12-18T07:22:02;98.65;;;33.65;;
76593;SDS011;65482;50.240;14.302;2022-12-18T07:24:27;99.68;;;34.22;;
76593;SDS011;65482;50.240;14.302;2022-12-18T07:26:53;99.72;;;32.38;;
76593;SDS011;65482;50.240;14.302;2022-12-18T07:29:19;89.57;;;33.65;;
76593;SDS011;65482;50.240;14.302;2022-12-18T07:31:45;99.97;;;35.20;;
76593;SDS011;65482;50.240;14.302;2022-12-18T07:34:11;99.13;;;37.47;;
76593;SDS011;65482;50.240;14.302;2022-12-18T07:36:38;91.70;;;36.70;;
76593;SDS011;65482;50.240;14.302;2022-12-18T07:39:03;101.03;;;36.55;;
76593;SDS011;65482;50.240;14.302;2022-12-18T07:41:29;92.30;;;34.33;;
76593;SDS011;65482;50.240;14.302;2022-12-18T07:43:55;99.13;;;33.72;;
76593;SDS011;65482;50.240;14.302;2022-12-18T07:46:21;82.28;;;30.25;;
76593;SDS011;65482;50.240;14.302;2022-12-18T07:48:46;89.10;;;32.53;;
76593;SDS011;65482;50.240;14.302;2022-12-18T07:51:12;90.25;;;33.67;;
76593;SDS011;65482;50.240;14.302;2022-12-18T07:53:38;95.55;;;34.08;;
76593;SDS011;65482;50.240;14.302;2022-12-18T07:56:08;93.32;;;35.28;;
76593;SDS011;65482;50.240;14.302;2022-12-18T07:58:36;86.63;;;30.33;;
76593;SDS011;65482;50.240;14.302;2022-12-18T08:01:06;78.85;;;30.48;;
76593;SDS011;65482;50.240;14.302;2022-12-18T08:03:33;84.78;;;33.22;;
76593;SDS011;65482;50.240;14.302;2022-12-18T08:05:59;86.30;;;30.00;;
76593;SDS011;65482;50.240;14.302;2022-12-18T08:08:28;99.20;;;34.55;;
76593;SDS011;65482;50.240;14.302;2022-12-18T08:10:54;95.38;;;33.47;;
76593;SDS011;65482;50.240;14.302;2022-12-18T08:13:20;87.45;;;32.65;;
76593;SDS011;65482;50.240;14.302;2022-12-18T08:15:46;91.32;;;33.67;;
76593;SDS011;65482;50.240;14.302;2022-12-18T08:18:11;84.22;;;33.28;;
76593;SDS011;65482;50.240;14.302;2022-12-18T08:20:37;85.47;;;33.97;;
76593;SDS011;65482;50.240;14.302;2022-12-18T08:23:02;89.63;;;31.90;;
76593;SDS011;65482;50.240;14.302;2022-12-18T08:25:28;84.03;;;30.25;;
76593;SDS011;65482;50.240;14.302;2022-12-18T08:27:54;79.78;;;31.42;;
76593;SDS011;65482;50.240;14.302;2022-12-18T08:30:21;79.47;;;29.48;;
76593;SDS011;65482;50.240;14.302;2022-12-18T08:32:49;77.47;;;29.38;;
76593;SDS011;65482;50.240;14.302;2022-12-18T08:35:18;76.05;;;31.48;;
76593;SDS011;65482;50.240;14.302;2022-12-18T08:37:43;81.75;;;31.23;;
76593;SDS011;65482;50.240;14.302;2022-12-18T08:40:09;81.10;;;31.80;;
76593;SDS011;65482;50.240;14.302;2022-12-18T08:42:35;72.00;;;27.65;;
76593;SDS011;65482;50.240;14.302;2022-12-18T08:45:19;80.07;;;30.85;;
76593;SDS011;65482;50.240;14.302;2022-12-18T08:47:44;75.20;;;30.00;;
76593;SDS011;65482;50.240;14.302;2022-12-18T08:50:11;60.00;;;22.67;;
76593;SDS011;65482;50.240;14.302;2022-12-18T08:52:37;59.10;;;21.58;;
76593;SDS011;65482;50.240;14.302;2022-12-18T08:55:03;53.05;;;19.67;;
76593;SDS011;65482;50.240;14.302;2022-12-18T08:57:29;50.03;;;16.52;;
76593;SDS011;65482;50.240;14.302;2022-12-18T08:59:55;40.30;;;14.25;;
76593;SDS011;65482;50.240;14.302;2022-12-18T09:02:20;31.58;;;10.65;;
76593;SDS011;65482;50.240;14.302;2022-12-18T09:04:47;31.60;;;11.55;;
76593;SDS011;65482;50.240;14.302;2022-12-18T09:07:13;26.92;;;9.88;;
76593;SDS011;65482;50.240;14.302;2022-12-18T09:09:39;24.40;;;9.73;;
76593;SDS011;65482;50.240;14.302;2022-12-18T09:12:04;25.90;;;9.75;;
76593;SDS011;65482;50.240;14.302;2022-12-18T09:14:30;30.75;;;10.30;;
76593;SDS011;65482;50.240;14.302;2022-12-18T09:16:55;31.83;;;11.75;;
76593;SDS011;65482;50.240;14.302;2022-12-18T09:19:21;29.63;;;11.93;;
76593;SDS011;65482;50.240;14.302;2022-12-18T09:21:47;36.83;;;13.00;;
76593;SDS011;65482;50.240;14.302;2022-12-18T09:24:13;40.15;;;12.23;;
76593;SDS011;65482;50.240;14.302;2022-12-18T09:26:39;35.22;;;13.07;;
76593;SDS011;65482;50.240;14.302;2022-12-18T09:29:05;46.03;;;14.25;;
76593;SDS011;65482;50.240;14.302;2022-12-18T09:31:32;39.85;;;13.32;;
76593;SDS011;65482;50.240;14.302;2022-12-18T09:33:58;42.72;;;13.90;;
76593;SDS011;65482;50.240;14.302;2022-12-18T09:36:24;44.20;;;12.95;;
76593;SDS011;65482;50.240;14.302;2022-12-18T09:38:49;49.20;;;13.43;;
76593;SDS011;65482;50.240;14.302;2022-12-18T09:43:51;42.47;;;12.95;;
76593;SDS011;65482;50.240;14.302;2022-12-18T09:46:31;41.83;;;13.57;;
76593;SDS011;65482;50.240;14.302;2022-12-18T09:49:01;40.22;;;13.80;;
76593;SDS011;65482;50.240;14.302;2022-12-18T09:51:39;65.57;;;21.80;;
76593;SDS011;65482;50.240;14.302;2022-12-18T09:54:20;49.97;;;17.50;;
76593;SDS011;65482;50.240;14.302;2022-12-18T09:56:49;49.83;;;15.82;;
76593;SDS011;65482;50.240;14.302;2022-12-18T09:59:20;34.15;;;11.55;;
76593;SDS011;65482;50.240;14.302;2022-12-18T10:01:46;36.15;;;13.35;;
76593;SDS011;65482;50.240;14.302;2022-12-18T10:04:12;28.10;;;10.70;;
76593;SDS011;65482;50.240;14.302;2022-12-18T10:06:39;29.67;;;10.95;;
76593;SDS011;65482;50.240;14.302;2022-12-18T10:09:34;30.15;;;10.25;;
76593;SDS011;65482;50.240;14.302;2022-12-18T10:12:32;30.65;;;12.07;;
76593;SDS011;65482;50.240;14.302;2022-12-18T10:15:14;27.65;;;9.52;;
76593;SDS011;65482;50.240;14.302;2022-12-18T10:18:06;34.95;;;11.52;;
76593;SDS011;65482;50.240;14.302;2022-12-18T10:20:45;27.52;;;10.38;;
76593;SDS011;65482;50.240;14.302;2022-12-18T10:23:22;34.33;;;11.50;;
76593;SDS011;65482;50.240;14.302;2022-12-18T10:26:03;28.70;;;11.82;;
76593;SDS011;65482;50.240;14.302;2022-12-18T10:28:31;29.50;;;11.45;;
76593;SDS011;65482;50.240;14.302;2022-12-18T10:31:00;30.02;;;11.43;;
76593;SDS011;65482;50.240;14.302;2022-12-18T10:33:29;35.80;;;12.60;;
76593;SDS011;65482;50.240;14.302;2022-12-18T10:35:57;30.92;;;12.40;;
76593;SDS011;65482;50.240;14.302;2022-12-18T10:38:24;34.85;;;12.68;;
76593;SDS011;65482;50.240;14.302;2022-12-18T10:40:56;36.53;;;13.60;;
76593;SDS011;65482;50.240;14.302;2022-12-18T10:43:28;37.97;;;13.70;;
76593;SDS011;65482;50.240;14.302;2022-12-18T10:48:33;35.33;;;13.18;;
76593;SDS011;65482;50.240;14.302;2022-12-18T10:51:01;41.55;;;14.18;;
76593;SDS011;65482;50.240;14.302;2022-12-18T10:53:29;42.67;;;12.40;;
76593;SDS011;65482;50.240;14.302;2022-12-18T10:55:58;36.10;;;12.73;;
76593;SDS011;65482;50.240;14.302;2022-12-18T10:58:30;36.47;;;12.93;;
76593;SDS011;65482;50.240;14.302;2022-12-18T11:01:05;41.38;;;15.20;;
76593;SDS011;65482;50.240;14.302;2022-12-18T11:04:00;51.22;;;17.70;;
76593;SDS011;65482;50.240;14.302;2022-12-18T11:06:26;36.15;;;12.35;;
76593;SDS011;65482;50.240;14.302;2022-12-18T11:11:23;33.67;;;12.88;;
76593;SDS011;65482;50.240;14.302;2022-12-18T11:14:01;35.88;;;12.35;;
76593;SDS011;65482;50.240;14.302;2022-12-18T11:16:31;32.35;;;12.15;;
76593;SDS011;65482;50.240;14.302;2022-12-18T11:21:49;25.77;;;9.35;;
76593;SDS011;65482;50.240;14.302;2022-12-18T11:24:27;34.25;;;10.07;;
76593;SDS011;65482;50.240;14.302;2022-12-18T11:26:57;32.13;;;11.20;;
76593;SDS011;65482;50.240;14.302;2022-12-18T11:29:38;31.50;;;11.85;;
76593;SDS011;65482;50.240;14.302;2022-12-18T11:34:39;36.45;;;11.98;;
76593;SDS011;65482;50.240;14.302;2022-12-18T11:37:12;32.22;;;11.77;;
76593;SDS011;65482;50.240;14.302;2022-12-18T11:39:46;33.05;;;12.20;;
76593;SDS011;65482;50.240;14.302;2022-12-18T11:42:20;38.20;;;13.07;;
76593;SDS011;65482;50.240;14.302;2022-12-18T11:50:44;38.27;;;12.73;;
76593;SDS011;65482;50.240;14.302;2022-12-18T11:53:15;34.72;;;12.38;;
76593;SDS011;65482;50.240;14.302;2022-12-18T11:58:27;36.30;;;13.15;;
76593;SDS011;65482;50.240;14.302;2022-12-18T12:06:37;32.95;;;13.25;;
76593;SDS011;65482;50.240;14.302;2022-12-18T12:09:32;34.88;;;13.63;;
76593;SDS011;65482;50.240;14.302;2022-12-18T12:12:23;29.35;;;12.40;;
76593;SDS011;65482;50.240;14.302;2022-12-18T12:23:22;43.42;;;13.35;;
76593;SDS011;65482;50.240;14.302;2022-12-18T12:26:08;35.97;;;12.88;;
76593;SDS011;65482;50.240;14.302;2022-12-18T12:37:48;45.03;;;14.90;;
76593;SDS011;65482;50.240;14.302;2022-12-18T12:40:19;37.10;;;14.27;;
76593;SDS011;65482;50.240;14.302;2022-12-18T12:43:10;32.58;;;13.40;;
76593;SDS011;65482;50.240;14.302;2022-12-18T12:46:03;35.63;;;12.95;;
76593;SDS011;65482;50.240;14.302;2022-12-18T12:48:55;35.20;;;12.52;;
76593;SDS011;65482;50.240;14.302;2022-12-18T12:51:24;33.40;;;12.88;;
76593;SDS011;65482;50.240;14.302;2022-12-18T12:53:52;33.35;;;11.82;;
76593;SDS011;65482;50.240;14.302;2022-12-18T12:56:20;33.33;;;10.98;;
76593;SDS011;65482;50.240;14.302;2022-12-18T13:04:18;36.60;;;11.07;;
76593;SDS011;65482;50.240;14.302;2022-12-18T13:09:23;27.40;;;10.80;;
76593;SDS011;65482;50.240;14.302;2022-12-18T13:11:49;30.92;;;10.43;;
76593;SDS011;65482;50.240;14.302;2022-12-18T13:14:34;25.98;;;10.00;;
76593;SDS011;65482;50.240;14.302;2022-12-18T13:19:49;24.15;;;9.75;;
76593;SDS011;65482;50.240;14.302;2022-12-18T13:22:21;28.45;;;10.75;;
76593;SDS011;65482;50.240;14.302;2022-12-18T13:24:48;26.25;;;9.10;;
76593;SDS011;65482;50.240;14.302;2022-12-18T13:38:22;23.25;;;8.70;;
76593;SDS011;65482;50.240;14.302;2022-12-18T13:43:24;27.27;;;10.20;;
76593;SDS011;65482;50.240;14.302;2022-12-18T13:46:00;29.13;;;10.75;;
76593;SDS011;65482;50.240;14.302;2022-12-18T13:48:29;29.15;;;10.40;;
76593;SDS011;65482;50.240;14.302;2022-12-18T13:53:33;31.45;;;10.88;;
76593;SDS011;65482;50.240;14.302;2022-12-18T13:56:03;23.20;;;10.05;;
76593;SDS011;65482;50.240;14.302;2022-12-18T13:58:30;24.58;;;10.27;;
76593;SDS011;65482;50.240;14.302;2022-12-18T14:00:56;22.77;;;9.35;;
76593;SDS011;65482;50.240;14.302;2022-12-18T14:03:26;29.92;;;10.95;;
76593;SDS011;65482;50.240;14.302;2022-12-18T14:05:54;32.38;;;11.45;;
76593;SDS011;65482;50.240;14.302;2022-12-18T14:08:24;30.50;;;12.50;;
76593;SDS011;65482;50.240;14.302;2022-12-18T14:10:57;24.73;;;9.45;;
76593;SDS011;65482;50.240;14.302;2022-12-18T14:13:36;55.38;;;22.17;;
76593;SDS011;65482;50.240;14.302;2022-12-18T14:16:06;30.83;;;11.68;;
76593;SDS011;65482;50.240;14.302;2022-12-18T14:18:46;36.45;;;12.50;;
76593;SDS011;65482;50.240;14.302;2022-12-18T14:21:18;34.97;;;10.97;;
76593;SDS011;65482;50.240;14.302;2022-12-18T14:23:46;38.45;;;12.35;;
76593;SDS011;65482;50.240;14.302;2022-12-18T14:26:20;61.38;;;19.55;;
76593;SDS011;65482;50.240;14.302;2022-12-18T14:28:48;40.53;;;14.10;;
76593;SDS011;65482;50.240;14.302;2022-12-18T14:31:26;70.05;;;24.63;;
76593;SDS011;65482;50.240;14.302;2022-12-18T14:33:53;39.00;;;15.13;;
76593;SDS011;65482;50.240;14.302;2022-12-18T14:36:23;42.03;;;15.52;;
76593;SDS011;65482;50.240;14.302;2022-12-18T14:38:51;44.00;;;15.40;;
76593;SDS011;65482;50.240;14.302;2022-12-18T14:41:19;31.70;;;13.32;;
76593;SDS011;65482;50.240;14.302;2022-12-18T14:43:47;45.25;;;14.18;;
76593;SDS011;65482;50.240;14.302;2022-12-18T14:46:28;42.67;;;14.95;;
76593;SDS011;65482;50.240;14.302;2022-12-18T14:51:53;30.02;;;12.48;;
76593;SDS011;65482;50.240;14.302;2022-12-18T14:54:20;36.20;;;12.77;;
76593;SDS011;65482;50.240;14.302;2022-12-18T14:57:35;36.22;;;12.93;;
76593;SDS011;65482;50.240;14.302;2022-12-18T14:59:46;29.13;;;11.88;;
76593;SDS011;65482;50.240;14.302;2022-12-18T15:02:15;37.60;;;13.73;;
76593;SDS011;65482;50.240;14.302;2022-12-18T15:04:45;31.98;;;12.15;;
76593;SDS011;65482;50.240;14.302;2022-12-18T15:09:41;35.58;;;12.88;;
76593;SDS011;65482;50.240;14.302;2022-12-18T15:12:44;31.40;;;10.30;;
76593;SDS011;65482;50.240;14.302;2022-12-18T15:15:58;34.08;;;13.55;;
76593;SDS011;65482;50.240;14.302;2022-12-18T15:18:18;31.60;;;11.73;;
76593;SDS011;65482;50.240;14.302;2022-12-18T15:23:36;37.40;;;13.27;;
76593;SDS011;65482;50.240;14.302;2022-12-18T15:26:09;39.92;;;14.90;;
76593;SDS011;65482;50.240;14.302;2022-12-18T15:28:37;44.00;;;13.70;;
76593;SDS011;65482;50.240;14.302;2022-12-18T15:33:38;46.47;;;16.00;;
76593;SDS011;65482;50.240;14.302;2022-12-18T15:36:13;34.67;;;14.50;;
76593;SDS011;65482;50.240;14.302;2022-12-18T15:38:45;40.38;;;15.05;;
76593;SDS011;65482;50.240;14.302;2022-12-18T15:41:15;42.47;;;15.90;;
76593;SDS011;65482;50.240;14.302;2022-12-18T15:43:43;46.33;;;15.55;;
76593;SDS011;65482;50.240;14.302;2022-12-18T15:48:39;37.72;;;13.43;;
76593;SDS011;65482;50.240;14.302;2022-12-18T15:51:16;47.88;;;18.05;;
76593;SDS011;65482;50.240;14.302;2022-12-18T15:53:44;45.70;;;15.20;;
76593;SDS011;65482;50.240;14.302;2022-12-18T15:56:11;40.63;;;15.32;;
76593;SDS011;65482;50.240;14.302;2022-12-18T15:58:57;44.10;;;15.45;;
76593;SDS011;65482;50.240;14.302;2022-12-18T16:01:23;45.15;;;16.02;;
76593;SDS011;65482;50.240;14.302;2022-12-18T16:03:51;42.63;;;16.08;;
76593;SDS011;65482;50.240;14.302;2022-12-18T16:06:18;48.33;;;15.15;;
76593;SDS011;65482;50.240;14.302;2022-12-18T16:08:44;48.28;;;17.98;;
76593;SDS011;65482;50.240;14.302;2022-12-18T16:11:23;42.03;;;16.40;;